sensor_id;sensor_type;location;lat;lon;timestamp;pressure;altitude;pressure_sealevel;temperature;humidity
25420;BME280;13354;48.174;11.566;2023-03-22T00:00:13;95558.75;;;12.19;59.59
25420;BME280;13354;48.174;11.566;2023-03-22T00:02:40;95550.38;;;12.16;59.60
25420;BME280;13354;48.174;11.566;2023-03-22T00:05:06;95552.00;;;12.23;59.51
25420;BME280;13354;48.174;11.566;2023-03-22T00:07:31;95544.84;;;12.17;59.76
25420;BME280;13354;48.174;11.566;2023-03-22T00:09:56;95544.84;;;12.17;59.30
25420;BME280;13354;48.174;11.566;2023-03-22T00:12:21;95544.44;;;12.14;59.71
25420;BME280;13354;48.174;11.566;2023-03-22T00:14:47;95535.47;;;12.21;59.38
25420;BME280;13354;48.174;11.566;2023-03-22T00:17:13;95537.53;;;12.19;59.64
25420;BME280;13354;48.174;11.566;2023-03-22T00:19:38;95536.91;;;12.30;59.14
25420;BME280;13354;48.174;11.566;2023-03-22T00:22:06;95528.53;;;12.27;58.96
25420;BME280;13354;48.174;11.566;2023-03-22T00:24:32;95525.06;;;12.13;59.57
25420;BME280;13354;48.174;11.566;2023-03-22T00:26:59;95528.13;;;12.03;60.08
25420;BME280;13354;48.174;11.566;2023-03-22T00:29:24;95523.03;;;12.02;60.26
25420;BME280;13354;48.174;11.566;2023-03-22T00:31:50;95522.63;;;12.05;60.23
25420;BME280;13354;48.174;11.566;2023-03-22T00:34:18;95519.75;;;12.00;60.33
25420;BME280;13354;48.174;11.566;2023-03-22T00:36:43;95522.81;;;12.10;59.83
25420;BME280;13354;48.174;11.566;2023-03-22T00:39:08;95516.50;;;12.04;59.99
25420;BME280;13354;48.174;11.566;2023-03-22T00:41:33;95504.84;;;11.99;59.97
25420;BME280;13354;48.174;11.566;2023-03-22T00:43:59;95504.03;;;11.98;60.43
25420;BME280;13354;48.174;11.566;2023-03-22T00:46:24;95492.44;;;11.86;61.14
25420;BME280;13354;48.174;11.566;2023-03-22T00:48:49;95504.44;;;11.95;60.33
25420;BME280;13354;48.174;11.566;2023-03-22T00:51:15;95500.38;;;11.99;60.18
25420;BME280;13354;48.174;11.566;2023-03-22T00:53:41;95502.00;;;11.94;60.41
25420;BME280;13354;48.174;11.566;2023-03-22T00:56:06;95494.06;;;12.00;59.99
25420;BME280;13354;48.174;11.566;2023-03-22T00:58:31;95497.72;;;12.06;59.92
25420;BME280;13354;48.174;11.566;2023-03-22T01:00:57;95502.59;;;11.96;60.13
25420;BME280;13354;48.174;11.566;2023-03-22T01:03:22;95502.63;;;12.09;59.57
25420;BME280;13354;48.174;11.566;2023-03-22T01:05:48;95500.38;;;12.06;59.62
25420;BME280;13354;48.174;11.566;2023-03-22T01:08:15;95500.38;;;12.13;59.75
25420;BME280;13354;48.174;11.566;2023-03-22T01:10:40;95501.19;;;12.06;59.51
25420;BME280;13354;48.174;11.566;2023-03-22T01:13:06;95498.75;;;11.98;59.44
25420;BME280;13354;48.174;11.566;2023-03-22T01:15:32;95508.72;;;12.03;59.44
25420;BME280;13354;48.174;11.566;2023-03-22T01:17:57;95504.25;;;12.17;59.06
25420;BME280;13354;48.174;11.566;2023-03-22T01:20:22;95502.84;;;12.01;59.37
25420;BME280;13354;48.174;11.566;2023-03-22T01:22:47;95497.50;;;12.07;59.24
25420;BME280;13354;48.174;11.566;2023-03-22T01:25:13;95498.34;;;12.01;59.48
25420;BME280;13354;48.174;11.566;2023-03-22T01:27:38;95493.44;;;12.05;59.35
25420;BME280;13354;48.174;11.566;2023-03-22T01:30:04;95494.25;;;12.05;59.52
25420;BME280;13354;48.174;11.566;2023-03-22T01:32:29;95486.09;;;11.94;59.46
25420;BME280;13354;48.174;11.566;2023-03-22T01:34:55;95482.63;;;11.87;59.60
25420;BME280;13354;48.174;11.566;2023-03-22T01:37:20;95475.66;;;11.85;59.61
25420;BME280;13354;48.174;11.566;2023-03-22T01:39:46;95476.06;;;11.76;59.82
25420;BME280;13354;48.174;11.566;2023-03-22T01:42:15;95472.78;;;11.80;59.76
25420;BME280;13354;48.174;11.566;2023-03-22T01:44:41;95476.06;;;11.69;60.07
25420;BME280;13354;48.174;11.566;2023-03-22T01:47:06;95472.81;;;11.60;60.09
25420;BME280;13354;48.174;11.566;2023-03-22T01:49:32;95477.91;;;11.69;60.01
25420;BME280;13354;48.174;11.566;2023-03-22T01:52:01;95477.28;;;11.73;59.78
25420;BME280;13354;48.174;11.566;2023-03-22T01:54:33;95473.19;;;11.71;59.97
25420;BME280;13354;48.174;11.566;2023-03-22T01:56:59;95474.22;;;11.70;60.08
25420;BME280;13354;48.174;11.566;2023-03-22T01:59:25;95475.47;;;11.60;60.28
25420;BME280;13354;48.174;11.566;2023-03-22T02:01:50;95471.16;;;11.79;59.55
25420;BME280;13354;48.174;11.566;2023-03-22T02:04:17;95467.09;;;11.57;60.10
25420;BME280;13354;48.174;11.566;2023-03-22T02:06:47;95470.13;;;11.47;60.52
25420;BME280;13354;48.174;11.566;2023-03-22T02:09:14;95465.03;;;11.66;59.66
25420;BME280;13354;48.174;11.566;2023-03-22T02:11:48;95469.94;;;11.55;59.90
25420;BME280;13354;48.174;11.566;2023-03-22T02:14:22;95471.56;;;11.43;60.79
25420;BME280;13354;48.174;11.566;2023-03-22T02:17:00;95479.09;;;11.46;60.22
25420;BME280;13354;48.174;11.566;2023-03-22T02:22:05;95468.50;;;11.46;60.23
25420;BME280;13354;48.174;11.566;2023-03-22T02:24:53;95469.50;;;11.52;60.09
25420;BME280;13354;48.174;11.566;2023-03-22T02:32:44;95448.50;;;11.44;60.16
25420;BME280;13354;48.174;11.566;2023-03-22T02:35:27;95452.81;;;11.38;60.57
25420;BME280;13354;48.174;11.566;2023-03-22T02:40:24;95449.31;;;11.44;60.63
25420;BME280;13354;48.174;11.566;2023-03-22T02:48:07;95470.53;;;11.31;61.15
25420;BME280;13354;48.174;11.566;2023-03-22T02:50:45;95462.56;;;11.24;61.49
25420;BME280;13354;48.174;11.566;2023-03-22T02:53:15;95465.63;;;11.34;61.07
25420;BME280;13354;48.174;11.566;2023-03-22T02:58:51;95472.50;;;11.16;62.39
25420;BME280;13354;48.174;11.566;2023-03-22T03:01:02;95475.56;;;11.19;62.32
25420;BME280;13354;48.174;11.566;2023-03-22T03:03:29;95472.72;;;11.14;62.55
25420;BME280;13354;48.174;11.566;2023-03-22T03:05:57;95479.22;;;11.11;63.07
25420;BME280;13354;48.174;11.566;2023-03-22T03:08:23;95481.47;;;11.08;62.82
25420;BME280;13354;48.174;11.566;2023-03-22T03:10:50;95484.69;;;10.97;63.04
25420;BME280;13354;48.174;11.566;2023-03-22T03:13:16;95482.03;;;10.97;63.39
25420;BME280;13354;48.174;11.566;2023-03-22T03:15:41;95489.38;;;10.95;63.54
25420;BME280;13354;48.174;11.566;2023-03-22T03:18:11;95480.81;;;10.93;63.66
25420;BME280;13354;48.174;11.566;2023-03-22T03:23:09;95494.44;;;10.83;63.91
25420;BME280;13354;48.174;11.566;2023-03-22T03:28:10;95495.19;;;10.70;64.32
25420;BME280;13354;48.174;11.566;2023-03-22T03:30:48;95489.28;;;10.75;64.40
25420;BME280;13354;48.174;11.566;2023-03-22T03:33:18;95488.00;;;10.64;64.46
25420;BME280;13354;48.174;11.566;2023-03-22T03:35:46;95486.81;;;10.67;64.66
25420;BME280;13354;48.174;11.566;2023-03-22T03:38:17;95484.41;;;10.72;64.39
25420;BME280;13354;48.174;11.566;2023-03-22T03:40:44;95483.78;;;10.70;64.58
25420;BME280;13354;48.174;11.566;2023-03-22T03:43:11;95482.38;;;10.74;64.31
25420;BME280;13354;48.174;11.566;2023-03-22T03:45:38;95484.84;;;10.82;63.94
25420;BME280;13354;48.174;11.566;2023-03-22T03:48:04;95484.00;;;10.75;64.08
25420;BME280;13354;48.174;11.566;2023-03-22T03:50:31;95482.75;;;10.71;64.30
25420;BME280;13354;48.174;11.566;2023-03-22T03:52:56;95483.97;;;10.61;64.54
25420;BME280;13354;48.174;11.566;2023-03-22T03:55:22;95482.53;;;10.66;64.54
25420;BME280;13354;48.174;11.566;2023-03-22T03:57:48;95481.72;;;10.65;64.75
25420;BME280;13354;48.174;11.566;2023-03-22T04:00:13;95480.19;;;10.43;65.39
25420;BME280;13354;48.174;11.566;2023-03-22T04:02:42;95473.88;;;10.44;65.33
25420;BME280;13354;48.174;11.566;2023-03-22T04:05:07;95469.63;;;10.49;65.40
25420;BME280;13354;48.174;11.566;2023-03-22T04:07:33;95468.81;;;10.42;65.47
25420;BME280;13354;48.174;11.566;2023-03-22T04:09:58;95468.38;;;10.45;65.37
25420;BME280;13354;48.174;11.566;2023-03-22T04:12:23;95468.22;;;10.47;65.07
25420;BME280;13354;48.174;11.566;2023-03-22T04:14:48;95462.09;;;10.46;65.88
25420;BME280;13354;48.174;11.566;2023-03-22T04:17:14;95468.84;;;10.55;65.30
25420;BME280;13354;48.174;11.566;2023-03-22T04:19:39;95471.25;;;10.44;65.39
25420;BME280;13354;48.174;11.566;2023-03-22T04:22:06;95467.34;;;10.39;65.74
25420;BME280;13354;48.174;11.566;2023-03-22T04:24:31;95471.56;;;10.27;66.50
25420;BME280;13354;48.174;11.566;2023-03-22T04:26:56;95469.03;;;10.19;66.76
25420;BME280;13354;48.174;11.566;2023-03-22T04:29:21;95475.38;;;10.25;66.81
25420;BME280;13354;48.174;11.566;2023-03-22T04:31:47;95467.09;;;10.28;66.85
25420;BME280;13354;48.174;11.566;2023-03-22T04:34:12;95475.38;;;10.25;66.67
25420;BME280;13354;48.174;11.566;2023-03-22T04:36:38;95470.09;;;10.25;67.04
25420;BME280;13354;48.174;11.566;2023-03-22T04:39:07;95470.38;;;10.36;66.30
25420;BME280;13354;48.174;11.566;2023-03-22T04:41:33;95463.22;;;10.30;66.55
25420;BME280;13354;48.174;11.566;2023-03-22T04:43:58;95464.44;;;10.28;66.75
25420;BME280;13354;48.174;11.566;2023-03-22T04:46:30;95460.56;;;10.30;66.93
25420;BME280;13354;48.174;11.566;2023-03-22T04:48:56;95468.47;;;10.24;67.02
25420;BME280;13354;48.174;11.566;2023-03-22T04:51:21;95469.19;;;10.39;66.51
25420;BME280;13354;48.174;11.566;2023-03-22T04:53:46;95464.66;;;10.33;66.54
25420;BME280;13354;48.174;11.566;2023-03-22T04:56:12;95462.25;;;10.38;66.42
25420;BME280;13354;48.174;11.566;2023-03-22T04:58:39;95453.06;;;10.34;66.18
25420;BME280;13354;48.174;11.566;2023-03-22T05:01:04;95460.81;;;10.35;66.22
25420;BME280;13354;48.174;11.566;2023-03-22T05:03:30;95459.59;;;10.31;66.23
25420;BME280;13354;48.174;11.566;2023-03-22T05:05:57;95465.25;;;10.28;66.37
25420;BME280;13354;48.174;11.566;2023-03-22T05:08:23;95469.97;;;10.33;66.03
25420;BME280;13354;48.174;11.566;2023-03-22T05:10:49;95471.59;;;10.34;66.19
25420;BME280;13354;48.174;11.566;2023-03-22T05:13:15;95476.06;;;10.33;66.06
25420;BME280;13354;48.174;11.566;2023-03-22T05:15:40;95465.06;;;10.30;66.05
25420;BME280;13354;48.174;11.566;2023-03-22T05:18:05;95463.22;;;10.30;65.93
25420;BME280;13354;48.174;11.566;2023-03-22T05:20:30;95464.00;;;10.24;66.24
25420;BME280;13354;48.174;11.566;2023-03-22T05:22:56;95464.72;;;10.39;65.49
25420;BME280;13354;48.174;11.566;2023-03-22T05:25:21;95470.56;;;10.28;65.40
25420;BME280;13354;48.174;11.566;2023-03-22T05:27:46;95468.50;;;10.30;65.48
25420;BME280;13354;48.174;11.566;2023-03-22T05:30:14;95469.84;;;10.20;65.70
25420;BME280;13354;48.174;11.566;2023-03-22T05:32:39;95478.53;;;10.35;65.29
25420;BME280;13354;48.174;11.566;2023-03-22T05:35:07;95478.50;;;10.28;65.22
25420;BME280;13354;48.174;11.566;2023-03-22T05:37:33;95473.19;;;10.28;65.63
25420;BME280;13354;48.174;11.566;2023-03-22T05:39:58;95468.97;;;10.40;64.89
25420;BME280;13354;48.174;11.566;2023-03-22T05:42:23;95465.75;;;10.45;64.84
25420;BME280;13354;48.174;11.566;2023-03-22T05:44:48;95467.81;;;10.56;64.49
25420;BME280;13354;48.174;11.566;2023-03-22T05:47:13;95475.19;;;10.68;64.00
25420;BME280;13354;48.174;11.566;2023-03-22T05:49:38;95470.19;;;10.86;63.16
25420;BME280;13354;48.174;11.566;2023-03-22T05:52:04;95473.50;;;10.95;63.05
25420;BME280;13354;48.174;11.566;2023-03-22T05:54:30;95469.63;;;11.04;62.66
25420;BME280;13354;48.174;11.566;2023-03-22T05:56:55;95465.16;;;11.11;62.17
25420;BME280;13354;48.174;11.566;2023-03-22T05:59:20;95469.22;;;11.07;61.90
25420;BME280;13354;48.174;11.566;2023-03-22T06:01:45;95465.16;;;11.11;61.85
25420;BME280;13354;48.174;11.566;2023-03-22T06:04:11;95471.53;;;11.23;61.44
25420;BME280;13354;48.174;11.566;2023-03-22T06:06:36;95469.69;;;11.37;60.99
25420;BME280;13354;48.174;11.566;2023-03-22T06:09:01;95462.59;;;11.64;60.13
25420;BME280;13354;48.174;11.566;2023-03-22T06:11:26;95473.03;;;12.12;59.13
25420;BME280;13354;48.174;11.566;2023-03-22T06:13:52;95461.91;;;13.00;57.67
25420;BME280;13354;48.174;11.566;2023-03-22T06:16:17;95460.44;;;13.74;54.56
25420;BME280;13354;48.174;11.566;2023-03-22T06:18:42;95462.50;;;14.22;53.58
25420;BME280;13354;48.174;11.566;2023-03-22T06:21:07;95459.94;;;14.52;51.94
25420;BME280;13354;48.174;11.566;2023-03-22T06:23:33;95464.84;;;14.73;51.25
25420;BME280;13354;48.174;11.566;2023-03-22T06:25:58;95464.81;;;14.92;50.56
25420;BME280;13354;48.174;11.566;2023-03-22T06:28:23;95465.41;;;15.24;49.72
25420;BME280;13354;48.174;11.566;2023-03-22T06:30:53;95462.84;;;15.48;49.10
25420;BME280;13354;48.174;11.566;2023-03-22T06:33:18;95457.75;;;16.00;48.11
25420;BME280;13354;48.174;11.566;2023-03-22T06:35:43;95460.88;;;15.97;47.29
25420;BME280;13354;48.174;11.566;2023-03-22T06:38:09;95464.56;;;16.78;45.43
25420;BME280;13354;48.174;11.566;2023-03-22T06:40:34;95461.56;;;17.43;44.41
25420;BME280;13354;48.174;11.566;2023-03-22T06:43:00;95459.75;;;17.03;43.61
25420;BME280;13354;48.174;11.566;2023-03-22T06:45:25;95471.44;;;16.27;45.51
25420;BME280;13354;48.174;11.566;2023-03-22T06:47:50;95474.94;;;15.50;46.46
25420;BME280;13354;48.174;11.566;2023-03-22T06:50:15;95469.28;;;15.28;47.41
25420;BME280;13354;48.174;11.566;2023-03-22T06:52:41;95481.72;;;14.42;49.06
25420;BME280;13354;48.174;11.566;2023-03-22T06:55:06;95480.44;;;14.08;50.24
25420;BME280;13354;48.174;11.566;2023-03-22T06:57:31;95476.13;;;13.82;50.70
25420;BME280;13354;48.174;11.566;2023-03-22T06:59:57;95484.31;;;13.24;51.93
25420;BME280;13354;48.174;11.566;2023-03-22T07:02:22;95483.25;;;13.25;51.93
25420;BME280;13354;48.174;11.566;2023-03-22T07:04:47;95484.94;;;13.13;52.82
25420;BME280;13354;48.174;11.566;2023-03-22T07:07:12;95488.16;;;12.76;53.86
25420;BME280;13354;48.174;11.566;2023-03-22T07:09:38;95488.78;;;12.72;53.97
25420;BME280;13354;48.174;11.566;2023-03-22T07:12:03;95496.78;;;12.65;54.46
25420;BME280;13354;48.174;11.566;2023-03-22T07:14:29;95498.41;;;12.66;54.52
25420;BME280;13354;48.174;11.566;2023-03-22T07:16:54;95496.38;;;12.68;54.17
25420;BME280;13354;48.174;11.566;2023-03-22T07:19:20;95492.66;;;12.76;54.11
25420;BME280;13354;48.174;11.566;2023-03-22T07:21:45;95492.22;;;12.86;54.11
25420;BME280;13354;48.174;11.566;2023-03-22T07:24:10;95501.81;;;12.87;53.64
25420;BME280;13354;48.174;11.566;2023-03-22T07:26:36;95490.19;;;12.81;53.84
25420;BME280;13354;48.174;11.566;2023-03-22T07:29:02;95495.47;;;12.88;53.89
25420;BME280;13354;48.174;11.566;2023-03-22T07:31:27;95502.44;;;12.89;54.49
25420;BME280;13354;48.174;11.566;2023-03-22T07:33:53;95498.59;;;12.78;56.23
25420;BME280;13354;48.174;11.566;2023-03-22T07:36:18;95495.34;;;12.69;55.35
25420;BME280;13354;48.174;11.566;2023-03-22T07:38:47;95487.09;;;12.91;55.00
25420;BME280;13354;48.174;11.566;2023-03-22T07:41:13;95486.06;;;12.92;54.56
25420;BME280;13354;48.174;11.566;2023-03-22T07:43:38;95488.13;;;12.90;54.46
25420;BME280;13354;48.174;11.566;2023-03-22T07:46:03;95492.25;;;12.79;55.26
25420;BME280;13354;48.174;11.566;2023-03-22T07:48:28;95479.25;;;13.02;54.11
25420;BME280;13354;48.174;11.566;2023-03-22T07:50:55;95489.75;;;12.91;54.51
25420;BME280;13354;48.174;11.566;2023-03-22T07:53:20;95492.03;;;12.74;54.93
25420;BME280;13354;48.174;11.566;2023-03-22T07:55:46;95487.66;;;12.99;54.37
25420;BME280;13354;48.174;11.566;2023-03-22T07:58:11;95485.19;;;13.04;54.32
25420;BME280;13354;48.174;11.566;2023-03-22T08:00:37;95498.34;;;12.93;55.00
25420;BME280;13354;48.174;11.566;2023-03-22T08:03:02;95492.50;;;13.16;54.74
25420;BME280;13354;48.174;11.566;2023-03-22T08:05:27;95495.00;;;13.04;55.25
25420;BME280;13354;48.174;11.566;2023-03-22T08:07:52;95498.91;;;13.01;55.29
25420;BME280;13354;48.174;11.566;2023-03-22T08:10:18;95495.88;;;12.91;55.64
25420;BME280;13354;48.174;11.566;2023-03-22T08:12:43;95491.06;;;13.13;55.38
25420;BME280;13354;48.174;11.566;2023-03-22T08:15:09;95492.28;;;13.17;55.36
25420;BME280;13354;48.174;11.566;2023-03-22T08:17:34;95494.06;;;13.37;55.29
25420;BME280;13354;48.174;11.566;2023-03-22T08:19:59;95496.09;;;13.35;55.45
25420;BME280;13354;48.174;11.566;2023-03-22T08:22:25;95489.56;;;13.37;55.41
25420;BME280;13354;48.174;11.566;2023-03-22T08:24:54;95492.00;;;13.39;55.84
25420;BME280;13354;48.174;11.566;2023-03-22T08:27:19;95486.75;;;13.57;55.47
25420;BME280;13354;48.174;11.566;2023-03-22T08:29:45;95482.38;;;13.69;55.12
25420;BME280;13354;48.174;11.566;2023-03-22T08:32:12;95487.56;;;13.58;55.95
25420;BME280;13354;48.174;11.566;2023-03-22T08:34:38;95479.69;;;13.69;55.50
25420;BME280;13354;48.174;11.566;2023-03-22T08:37:04;95482.22;;;13.89;54.94
25420;BME280;13354;48.174;11.566;2023-03-22T08:39:30;95475.06;;;14.33;53.33
25420;BME280;13354;48.174;11.566;2023-03-22T08:41:55;95476.75;;;14.89;52.64
25420;BME280;13354;48.174;11.566;2023-03-22T08:44:20;95480.31;;;15.32;51.46
25420;BME280;13354;48.174;11.566;2023-03-22T08:46:46;95464.53;;;15.72;49.76
25420;BME280;13354;48.174;11.566;2023-03-22T08:49:11;95475.81;;;15.86;49.53
25420;BME280;13354;48.174;11.566;2023-03-22T08:51:36;95470.88;;;16.36;48.44
25420;BME280;13354;48.174;11.566;2023-03-22T08:54:03;95472.94;;;16.81;47.03
25420;BME280;13354;48.174;11.566;2023-03-22T08:56:28;95474.09;;;17.26;46.62
25420;BME280;13354;48.174;11.566;2023-03-22T08:58:53;95455.28;;;17.66;45.22
25420;BME280;13354;48.174;11.566;2023-03-22T09:01:19;95457.03;;;18.06;44.56
25420;BME280;13354;48.174;11.566;2023-03-22T09:03:45;95459.69;;;18.40;43.46
25420;BME280;13354;48.174;11.566;2023-03-22T09:06:10;95461.16;;;18.14;44.09
25420;BME280;13354;48.174;11.566;2023-03-22T09:08:35;95470.34;;;18.18;43.55
25420;BME280;13354;48.174;11.566;2023-03-22T09:11:01;95462.81;;;18.53;42.67
25420;BME280;13354;48.174;11.566;2023-03-22T09:13:26;95457.34;;;18.26;41.88
25420;BME280;13354;48.174;11.566;2023-03-22T09:15:54;95463.91;;;18.35;42.18
25420;BME280;13354;48.174;11.566;2023-03-22T09:18:20;95457.56;;;18.42;41.97
25420;BME280;13354;48.174;11.566;2023-03-22T09:20:46;95451.34;;;18.75;41.54
25420;BME280;13354;48.174;11.566;2023-03-22T09:23:12;95451.22;;;19.09;40.52
25420;BME280;13354;48.174;11.566;2023-03-22T09:25:41;95448.00;;;18.68;41.30
25420;BME280;13354;48.174;11.566;2023-03-22T09:28:06;95438.19;;;18.95;40.78
25420;BME280;13354;48.174;11.566;2023-03-22T09:30:32;95445.28;;;18.85;40.44
25420;BME280;13354;48.174;11.566;2023-03-22T09:32:57;95438.13;;;18.90;40.43
25420;BME280;13354;48.174;11.566;2023-03-22T09:35:22;95435.03;;;19.03;40.78
25420;BME280;13354;48.174;11.566;2023-03-22T09:37:47;95430.84;;;19.08;40.43
25420;BME280;13354;48.174;11.566;2023-03-22T09:40:13;95428.66;;;19.31;39.48
25420;BME280;13354;48.174;11.566;2023-03-22T09:42:41;95433.50;;;19.08;39.85
25420;BME280;13354;48.174;11.566;2023-03-22T09:45:15;95429.41;;;19.27;39.39
25420;BME280;13354;48.174;11.566;2023-03-22T09:47:43;95432.09;;;19.27;38.80
25420;BME280;13354;48.174;11.566;2023-03-22T09:52:45;95422.91;;;19.45;38.80
25420;BME280;13354;48.174;11.566;2023-03-22T09:55:20;95422.72;;;19.57;38.53
25420;BME280;13354;48.174;11.566;2023-03-22T09:57:53;95437.09;;;19.67;38.12
25420;BME280;13354;48.174;11.566;2023-03-22T10:00:36;95418.44;;;19.88;37.91
25420;BME280;13354;48.174;11.566;2023-03-22T10:03:13;95410.16;;;19.89;38.06
25420;BME280;13354;48.174;11.566;2023-03-22T10:08:21;95409.75;;;20.08;37.27
25420;BME280;13354;48.174;11.566;2023-03-22T10:10:48;95395.47;;;20.02;37.77
25420;BME280;13354;48.174;11.566;2023-03-22T10:13:34;95404.41;;;20.13;37.47
25420;BME280;13354;48.174;11.566;2023-03-22T10:16:05;95405.69;;;20.05;37.56
25420;BME280;13354;48.174;11.566;2023-03-22T10:18:35;95403.88;;;20.16;38.15
25420;BME280;13354;48.174;11.566;2023-03-22T10:21:02;95392.19;;;20.37;37.35
25420;BME280;13354;48.174;11.566;2023-03-22T10:23:38;95398.88;;;20.30;37.82
25420;BME280;13354;48.174;11.566;2023-03-22T10:26:06;95393.16;;;20.63;36.88
25420;BME280;13354;48.174;11.566;2023-03-22T10:30:58;95393.53;;;20.87;36.65
25420;BME280;13354;48.174;11.566;2023-03-22T10:33:29;95386.94;;;20.53;35.69
25420;BME280;13354;48.174;11.566;2023-03-22T10:35:55;95383.19;;;20.59;35.87
25420;BME280;13354;48.174;11.566;2023-03-22T10:38:22;95379.78;;;20.73;36.06
25420;BME280;13354;48.174;11.566;2023-03-22T10:40:48;95379.81;;;20.89;37.79
25420;BME280;13354;48.174;11.566;2023-03-22T10:45:43;95380.34;;;20.86;35.59
25420;BME280;13354;48.174;11.566;2023-03-22T10:48:10;95375.81;;;20.96;35.54
25420;BME280;13354;48.174;11.566;2023-03-22T10:50:39;95377.31;;;20.72;35.70
25420;BME280;13354;48.174;11.566;2023-03-22T10:53:07;95376.56;;;20.87;34.72
25420;BME280;13354;48.174;11.566;2023-03-22T10:55:39;95377.69;;;20.96;35.06
25420;BME280;13354;48.174;11.566;2023-03-22T10:58:16;95376.69;;;21.22;34.75
25420;BME280;13354;48.174;11.566;2023-03-22T11:03:30;95372.06;;;21.13;33.51
25420;BME280;13354;48.174;11.566;2023-03-22T11:13:48;95358.69;;;21.54;34.68
25420;BME280;13354;48.174;11.566;2023-03-22T11:16:14;95365.16;;;21.68;34.19
25420;BME280;13354;48.174;11.566;2023-03-22T11:18:40;95365.44;;;21.92;33.50
25420;BME280;13354;48.174;11.566;2023-03-22T11:21:06;95361.38;;;22.25;34.23
25420;BME280;13354;48.174;11.566;2023-03-22T11:23:33;95360.81;;;22.23;33.38
25420;BME280;13354;48.174;11.566;2023-03-22T11:26:06;95363.47;;;22.49;32.98
25420;BME280;13354;48.174;11.566;2023-03-22T11:28:33;95359.31;;;22.72;32.73
25420;BME280;13354;48.174;11.566;2023-03-22T11:31:09;95355.50;;;22.88;31.71
25420;BME280;13354;48.174;11.566;2023-03-22T11:33:35;95352.25;;;22.91;31.67
25420;BME280;13354;48.174;11.566;2023-03-22T11:36:02;95357.97;;;22.79;32.17
25420;BME280;13354;48.174;11.566;2023-03-22T11:38:29;95350.38;;;22.81;31.71
25420;BME280;13354;48.174;11.566;2023-03-22T11:40:59;95348.28;;;22.68;31.31
25420;BME280;13354;48.174;11.566;2023-03-22T11:43:38;95350.47;;;22.66;31.76
25420;BME280;13354;48.174;11.566;2023-03-22T11:46:05;95339.72;;;22.46;31.79
25420;BME280;13354;48.174;11.566;2023-03-22T11:48:31;95342.47;;;22.35;32.79
25420;BME280;13354;48.174;11.566;2023-03-22T11:51:02;95337.81;;;22.61;31.57
25420;BME280;13354;48.174;11.566;2023-03-22T11:53:28;95336.28;;;22.30;32.07
25420;BME280;13354;48.174;11.566;2023-03-22T11:55:57;95340.63;;;22.21;31.98
25420;BME280;13354;48.174;11.566;2023-03-22T11:58:29;95330.38;;;22.17;33.04
25420;BME280;13354;48.174;11.566;2023-03-22T12:01:08;95329.78;;;22.41;33.12
25420;BME280;13354;48.174;11.566;2023-03-22T12:03:37;95311.31;;;22.69;32.29
25420;BME280;13354;48.174;11.566;2023-03-22T12:06:04;95316.66;;;22.84;33.26
25420;BME280;13354;48.174;11.566;2023-03-22T12:11:05;95297.69;;;23.38;31.59
25420;BME280;13354;48.174;11.566;2023-03-22T12:16:00;95300.66;;;23.42;31.28
25420;BME280;13354;48.174;11.566;2023-03-22T12:18:28;95298.38;;;23.15;31.74
25420;BME280;13354;48.174;11.566;2023-03-22T12:20:58;95291.38;;;23.53;31.96
25420;BME280;13354;48.174;11.566;2023-03-22T12:23:27;95292.06;;;23.98;31.93
25420;BME280;13354;48.174;11.566;2023-03-22T12:28:24;95278.91;;;23.52;30.53
25420;BME280;13354;48.174;11.566;2023-03-22T12:30:52;95277.63;;;23.50;31.25
25420;BME280;13354;48.174;11.566;2023-03-22T12:33:22;95286.75;;;23.88;30.08
25420;BME280;13354;48.174;11.566;2023-03-22T12:35:50;95273.72;;;23.61;30.93
25420;BME280;13354;48.174;11.566;2023-03-22T12:40:42;95264.28;;;24.17;29.86
25420;BME280;13354;48.174;11.566;2023-03-22T12:43:10;95266.22;;;23.87;30.63
25420;BME280;13354;48.174;11.566;2023-03-22T12:45:39;95256.44;;;23.91;29.97
25420;BME280;13354;48.174;11.566;2023-03-22T12:48:09;95246.16;;;23.64;29.30
25420;BME280;13354;48.174;11.566;2023-03-22T12:50:52;95250.06;;;24.06;29.63
25420;BME280;13354;48.174;11.566;2023-03-22T12:53:20;95250.69;;;24.22;29.30
25420;BME280;13354;48.174;11.566;2023-03-22T12:55:47;95246.16;;;24.41;29.61
25420;BME280;13354;48.174;11.566;2023-03-22T12:58:14;95257.34;;;24.29;29.78
25420;BME280;13354;48.174;11.566;2023-03-22T13:05:40;95235.31;;;24.17;29.22
25420;BME280;13354;48.174;11.566;2023-03-22T13:08:05;95224.50;;;24.41;28.92
25420;BME280;13354;48.174;11.566;2023-03-22T13:13:12;95222.06;;;24.64;28.23
25420;BME280;13354;48.174;11.566;2023-03-22T13:15:39;95229.13;;;24.59;28.38
25420;BME280;13354;48.174;11.566;2023-03-22T13:18:21;95211.94;;;24.88;28.30
25420;BME280;13354;48.174;11.566;2023-03-22T13:20:47;95212.75;;;25.08;27.95
25420;BME280;13354;48.174;11.566;2023-03-22T13:23:30;95216.63;;;25.20;27.62
25420;BME280;13354;48.174;11.566;2023-03-22T13:25:59;95219.06;;;24.84;28.15
25420;BME280;13354;48.174;11.566;2023-03-22T13:28:25;95216.66;;;24.64;28.38
25420;BME280;13354;48.174;11.566;2023-03-22T13:30:56;95213.78;;;24.74;28.06
25420;BME280;13354;48.174;11.566;2023-03-22T13:33:26;95213.06;;;24.87;27.92
25420;BME280;13354;48.174;11.566;2023-03-22T13:36:00;95217.31;;;24.74;28.23
25420;BME280;13354;48.174;11.566;2023-03-22T13:38:29;95210.00;;;24.32;26.99
25420;BME280;13354;48.174;11.566;2023-03-22T13:43:30;95214.84;;;23.58;28.63
25420;BME280;13354;48.174;11.566;2023-03-22T13:48:41;95208.38;;;22.96;29.18
25420;BME280;13354;48.174;11.566;2023-03-22T13:51:10;95212.41;;;22.49;29.57
25420;BME280;13354;48.174;11.566;2023-03-22T13:53:36;95202.59;;;22.18;29.36
25420;BME280;13354;48.174;11.566;2023-03-22T13:56:03;95200.97;;;22.07;30.30